Time;durP1;ratioP1;P1;durP2;ratioP2;P2;SDS_P1;SDS_P2;PMS_P1;PMS_P2;Temp;Humidity;BMP_temperature;BMP_pressure;BME280_temperature;BME280_humidity;BME280_pressure;Samples;Min_cycle;Max_cycle;Signal;HPM_P1;HPM_P2
2021/11/17 02:27:50;;;;;;;30.88;12.25;;;;;;;-0.68;68.11;100542.53;4819410;29;20539;-69
2021/11/17 02:30:26;;;;;;;;;;;;;;;-0.67;67.58;100538.22;4820271;29;20069;-68
2021/11/17 02:33:30;;;;;;;28.08;10.07;;;;;;;-0.89;68.33;100540.31;4819944;29;19920;-68
2021/11/17 02:35:59;;;;;;;23.90;9.73;;;;;;;-0.93;68.33;100542.09;4817664;29;20056;-67
2021/11/17 02:38:44;;;;;;;23.83;10.40;;;;;;;-0.90;68.56;100536.84;4819691;29;20149;-69
2021/11/17 02:41:27;;;;;;;23.98;8.73;;;;;;;-0.97;68.59;100535.25;4819140;29;20196;-69
2021/11/17 02:44:15;;;;;;;21.35;9.25;;;;;;;-0.95;68.71;100536.06;4818251;29;20050;-69
2021/11/17 02:46:41;;;;;;;19.45;8.02;;;;;;;-1.07;68.86;100539.72;4820142;29;20523;-72
2021/11/17 02:49:21;;;;;;;17.25;7.28;;;;;;;-1.09;69.26;100535.44;4819712;29;20065;-68
2021/11/17 02:51:47;;;;;;;19.85;8.85;;;;;;;-0.88;68.87;100527.28;4819396;29;20103;-68
2021/11/17 02:54:35;;;;;;;15.02;7.53;;;;;;;-0.70;68.43;100526.16;4858829;29;20109;-69
2021/11/17 02:57:19;;;;;;;16.35;7.35;;;;;;;-0.80;68.09;100521.13;4871250;29;20045;-70
2021/11/17 03:00:10;;;;;;;22.80;8.48;;;;;;;-0.95;68.45;100517.03;4880009;29;20506;-68
2021/11/17 03:02:42;;;;;;;17.83;7.03;;;;;;;-0.94;68.75;100524.78;4944027;28;20059;-68
2021/11/17 03:05:35;;;;;;;14.52;6.30;;;;;;;-0.79;68.49;100523.69;4955113;28;20046;-68
2021/11/17 03:08:26;;;;;;;17.38;6.85;;;;;;;-0.71;68.14;100527.03;4957040;28;20043;-68
2021/11/17 03:11:05;;;;;;;15.80;6.70;;;;;;;-0.86;68.28;100522.94;4956452;28;20484;-68
2021/11/17 03:13:56;;;;;;;15.93;6.75;;;;;;;-0.91;68.48;100529.94;4953051;29;20051;-68
2021/11/17 03:16:28;;;;;;;13.95;6.10;;;;;;;-0.94;68.65;100523.94;4946963;29;20509;-67
2021/11/17 03:19:12;;;;;;;12.88;5.93;;;;;;;-0.84;68.98;100521.16;4945117;29;20039;-70
2021/11/17 03:21:44;;;;;;;15.35;7.97;;;;;;;-0.65;68.02;100520.84;4939061;29;20058;-66
2021/11/17 03:24:23;;;;;;;13.80;6.15;;;;;;;-0.58;67.99;100529.41;4942864;29;20043;-69
2021/11/17 03:26:48;;;;;;;;;;;;;;;-0.60;67.90;100520.78;4939127;29;20094;-67
2021/11/17 03:29:56;;;;;;;17.42;6.70;;;;;;;-0.46;67.88;100515.34;4925811;29;20013;-67
2021/11/17 03:32:44;;;;;;;13.88;5.88;;;;;;;-0.50;67.38;100519.72;4893627;29;20057;-67
2021/11/17 03:35:25;;;;;;;11.50;6.07;;;;;;;-0.54;67.61;100513.72;4893397;29;20127;-67
2021/11/17 03:38:18;;;;;;;16.00;7.20;;;;;;;-0.43;67.29;100512.69;4892310;29;20068;-67
2021/11/17 03:40:57;;;;;;;12.45;5.97;;;;;;;-0.45;67.20;100517.06;4892701;29;20047;-70
2021/11/17 03:43:59;;;;;;;15.57;6.35;;;;;;;-0.61;67.72;100517.34;4894382;29;20132;-72
2021/11/17 03:46:55;;;;;;;18.83;6.78;;;;;;;-0.50;67.69;100507.59;4881641;29;20136;-68
2021/11/17 03:49:56;;;;;;;14.35;6.28;;;;;;;-0.40;67.37;100513.50;4881153;29;20607;-68
2021/11/17 03:53:04;;;;;;;13.95;6.10;;;;;;;-0.48;67.52;100512.78;4896944;29;20053;-68
2021/11/17 03:55:41;;;;;;;;;;;;;;;-0.45;67.25;100512.69;4897219;29;20419;-67
2021/11/17 03:58:13;;;;;;;12.27;5.55;;;;;;;-0.63;67.53;100506.09;4896546;29;19923;-70
2021/11/17 04:01:13;;;;;;;13.18;6.68;;;;;;;-0.69;67.92;100506.22;4896564;29;20060;-70
2021/11/17 04:03:41;;;;;;;13.73;6.45;;;;;;;-0.67;67.81;100502.69;4896614;29;20458;-68
2021/11/17 04:06:54;;;;;;;14.48;6.18;;;;;;;-0.70;68.14;100501.91;4896775;29;20059;-69
2021/11/17 04:09:52;;;;;;;11.80;6.03;;;;;;;-0.58;67.95;100499.09;4855452;29;20116;-68
2021/11/17 04:12:17;;;;;;;16.25;5.90;;;;;;;-0.53;67.90;100499.00;4877745;29;20068;-68
2021/11/17 04:15:15;;;;;;;14.90;6.47;;;;;;;-0.59;67.86;100496.53;4877253;29;20159;-67
2021/11/17 04:18:26;;;;;;;13.23;6.40;;;;;;;-0.53;67.61;100499.84;4861997;29;20557;-68
2021/11/17 04:21:25;;;;;;;17.65;6.63;;;;;;;-0.48;67.52;100501.53;4799139;29;20103;-69
2021/11/17 04:24:13;;;;;;;13.77;5.70;;;;;;;-0.42;67.29;100501.41;4804030;29;20520;-69
2021/11/17 04:27:00;;;;;;;11.93;5.15;;;;;;;-0.50;67.09;100510.22;4803627;29;20081;-71
2021/11/17 04:29:46;;;;;;;11.50;4.97;;;;;;;-0.29;67.15;100502.03;4804061;29;20066;-70
2021/11/17 04:32:30;;;;;;;12.43;5.25;;;;;;;-0.16;66.45;100503.53;4804118;29;20066;-69
2021/11/17 04:35:12;;;;;;;16.23;5.80;;;;;;;-0.23;66.41;100504.53;4791856;29;20128;-69
2021/11/17 04:37:44;;;;;;;9.40;5.32;;;;;;;-0.37;66.56;100505.63;4785825;30;20078;-67
2021/11/17 04:40:18;;;;;;;18.38;6.82;;;;;;;-0.27;66.73;100513.28;4785113;30;20059;-67
2021/11/17 04:42:59;;;;;;;15.15;6.22;;;;;;;-0.25;66.43;100508.88;4784943;30;20062;-67
2021/11/17 04:45:34;;;;;;;11.55;5.80;;;;;;;-0.14;66.59;100511.28;4820512;29;20053;-69
2021/11/17 04:48:07;;;;;;;15.45;7.03;;;;;;;-0.33;67.14;100509.03;4858155;29;20481;-71
2021/11/17 04:50:53;;;;;;;11.85;6.25;;;;;;;-0.35;67.14;100508.19;4858451;29;20181;-69
2021/11/17 04:53:34;;;;;;;15.48;7.88;;;;;;;-0.23;67.16;100510.56;4858510;29;20056;-70
2021/11/17 04:56:14;;;;;;;19.55;7.00;;;;;;;-0.22;66.75;100514.03;4856965;29;20073;-70
2021/11/17 04:58:40;;;;;;;16.25;7.63;;;;;;;-0.11;66.77;100516.41;4933722;29;20051;-69
2021/11/17 05:01:11;;;;;;;15.60;7.00;;;;;;;-0.18;66.40;100510.50;4936185;29;20142;-71
2021/11/17 05:03:46;;;;;;;14.95;6.85;;;;;;;-0.26;66.93;100508.03;4936110;29;20083;-70
2021/11/17 05:06:36;;;;;;;31.38;10.75;;;;;;;-0.25;67.13;100507.16;4935648;29;20047;-69
2021/11/17 05:09:17;;;;;;;13.75;5.72;;;;;;;-0.21;66.77;100506.22;4935928;29;20473;-69
2021/11/17 05:11:55;;;;;;;14.07;6.00;;;;;;;-0.14;66.58;100511.28;4918833;29;20052;-69
2021/11/17 05:14:49;;;;;;;16.00;6.10;;;;;;;-0.11;66.28;100503.41;4935658;29;20489;-71
2021/11/17 05:17:33;;;;;;;14.30;6.88;;;;;;;-0.22;66.46;100509.69;4935724;29;20040;-67
2021/11/17 05:20:23;;;;;;;15.82;6.25;;;;;;;-0.21;66.46;100506.22;4935251;29;20540;-69
2021/11/17 05:23:07;;;;;;;16.15;6.20;;;;;;;-0.21;66.29;100510.56;4935423;29;20186;-69
2021/11/17 05:25:43;;;;;;;16.20;6.47;;;;;;;-0.14;66.15;100511.28;4935730;29;20070;-68
2021/11/17 05:28:25;;;;;;;14.23;6.97;;;;;;;-0.20;66.48;100507.94;4918640;29;20461;-69
2021/11/17 05:31:03;;;;;;;16.02;7.07;;;;;;;-0.05;66.23;100498.09;4934208;29;20504;-69
2021/11/17 05:33:47;;;;;;;18.23;7.22;;;;;;;-0.04;66.17;100507.63;4936798;29;20103;-69
2021/11/17 05:36:41;;;;;;;15.57;6.47;;;;;;;0.03;65.55;100503.16;4954467;29;20181;-70
2021/11/17 05:39:25;;;;;;;15.02;6.93;;;;;;;-0.07;65.70;100502.50;4954651;29;20051;-69
2021/11/17 05:41:55;;;;;;;12.95;5.80;;;;;;;-0.15;65.99;100506.97;4954161;29;20053;-70
2021/11/17 05:44:36;;;;;;;13.63;5.72;;;;;;;-0.04;65.52;100505.00;4954612;29;20130;-68
2021/11/17 05:47:26;;;;;;;18.73;9.82;;;;;;;-0.19;65.42;100494.06;4954248;29;20043;-69
2021/11/17 05:50:06;;;;;;;16.48;8.40;;;;;;;-0.06;65.22;100509.41;4954227;29;20055;-70
2021/11/17 05:52:44;;;;;;;17.83;7.45;;;;;;;-0.08;65.35;100503.38;4954096;29;20058;-71
2021/11/17 05:55:19;;;;;;;21.15;8.25;;;;;;;0.01;65.58;100502.31;4954332;29;20058;-72
2021/11/17 05:58:02;;;;;;;23.33;11.13;;;;;;;0.04;65.56;100510.94;4953815;29;20559;-71
2021/11/17 06:00:54;;;;;;;35.05;11.95;;;;;;;-0.11;65.28;100516.41;4954075;29;20043;-71
2021/11/17 06:03:55;;;;;;;12.25;6.50;;;;;;;-0.01;65.86;100508.41;4928244;29;20090;-70
2021/11/17 06:06:22;;;;;;;17.35;5.82;;;;;;;0.06;65.61;100503.09;4953699;28;20551;-69
2021/11/17 06:08:49;;;;;;;13.27;5.30;;;;;;;0.06;65.26;100511.72;4953932;29;20176;-69
2021/11/17 06:11:15;;;;;;;10.45;4.55;;;;;;;0.27;64.87;100512.19;4953862;29;20055;-68
2021/11/17 06:13:41;;;;;;;20.23;7.75;;;;;;;0.19;64.82;100503.69;4953892;29;20093;-69
2021/11/17 06:16:07;;;;;;;16.23;8.43;;;;;;;0.09;65.22;100508.25;4954011;29;20466;-71
2021/11/17 06:18:34;;;;;;;22.75;8.38;;;;;;;0.31;65.06;100503.44;4953884;29;20090;-73
2021/11/17 06:21:03;;;;;;;19.50;8.98;;;;;;;0.43;64.71;100503.16;4936101;29;20039;-69
2021/11/17 06:23:41;;;;;;;18.73;8.20;;;;;;;0.13;64.74;100495.13;4953664;29;20047;-69
2021/11/17 06:26:10;;;;;;;16.75;7.40;;;;;;;0.17;64.58;100495.91;4953671;29;20428;-71
2021/11/17 06:28:39;;;;;;;19.88;7.40;;;;;;;0.25;65.26;100498.34;4953421;29;20086;-70
2021/11/17 06:31:05;;;;;;;14.98;6.40;;;;;;;0.52;64.89;100496.91;4936817;29;20061;-68
2021/11/17 06:33:31;;;;;;;16.98;5.88;;;;;;;0.44;64.28;100489.28;4934639;29;20042;-70
2021/11/17 06:35:57;;;;;;;15.00;7.10;;;;;;;0.15;64.97;100492.50;4934134;29;20063;-71
2021/11/17 06:38:24;;;;;;;14.40;6.20;;;;;;;0.19;64.78;100508.88;4934576;29;20083;-68
2021/11/17 06:40:51;;;;;;;18.08;7.70;;;;;;;0.15;65.54;100502.91;4934255;29;20390;-69
2021/11/17 06:43:17;;;;;;;16.98;7.28;;;;;;;0.46;64.57;100502.25;4917125;29;20055;-70
2021/11/17 06:45:52;;;;;;;11.88;6.22;;;;;;;0.59;63.83;100495.88;4934059;29;20513;-68
2021/11/17 06:48:40;;;;;;;21.30;8.55;;;;;;;0.62;63.46;100489.75;4934291;29;20126;-69
2021/11/17 06:51:09;;;;;;;21.70;5.63;;;;;;;0.70;63.69;100490.44;4917728;29;20048;-71
2021/11/17 06:53:35;;;;;;;16.95;6.20;;;;;;;0.60;63.50;100488.94;4916934;29;20059;-70
2021/11/17 06:56:01;;;;;;;13.73;5.47;;;;;;;0.58;63.83;100488.97;4934080;29;20130;-69
2021/11/17 06:58:27;;;;;;;11.60;4.63;;;;;;;0.58;63.38;100485.50;4933875;29;20131;-70
2021/11/17 07:00:54;;;;;;;11.02;4.57;;;;;;;0.61;64.00;100485.44;4933877;29;20043;-70
2021/11/17 07:03:20;;;;;;;19.00;5.47;;;;;;;0.50;63.48;100483.09;4935788;28;20074;-70
2021/11/17 07:05:45;;;;;;;19.52;5.10;;;;;;;0.51;64.07;100487.38;4953059;29;20070;-70
2021/11/17 07:08:12;;;;;;;22.75;9.98;;;;;;;0.59;63.70;100493.28;4952770;29;20074;-70
2021/11/17 07:10:38;;;;;;;14.00;5.18;;;;;;;0.63;63.14;100486.25;4953141;29;20062;-69
2021/11/17 07:13:13;;;;;;;24.40;9.05;;;;;;;0.51;63.88;100494.34;4920547;29;20089;-70
2021/11/17 07:15:44;;;;;;;16.63;5.57;;;;;;;0.71;63.40;100486.94;4919986;29;20047;-70
2021/11/17 07:18:10;;;;;;;18.70;8.45;;;;;;;0.68;63.02;100492.22;4936560;29;20043;-69
2021/11/17 07:20:37;;;;;;;10.70;4.72;;;;;;;0.73;62.97;100484.31;4957102;29;20334;-70
2021/11/17 07:23:04;;;;;;;12.40;5.32;;;;;;;0.78;62.82;100492.84;4939250;29;20548;-69
2021/11/17 07:25:42;;;;;;;15.00;6.30;;;;;;;0.85;63.24;100496.16;4924655;29;20134;-74
2021/11/17 07:28:11;;;;;;;16.17;5.75;;;;;;;0.61;63.69;100504.53;4923581;29;20083;-70
2021/11/17 07:30:42;;;;;;;9.65;5.35;;;;;;;0.82;63.48;100498.84;4939370;29;20429;-72
2021/11/17 07:33:08;;;;;;;20.80;6.88;;;;;;;0.78;62.61;100509.31;4956925;29;20587;-70
2021/11/17 07:35:36;;;;;;;11.38;5.38;;;;;;;0.63;63.35;100517.50;4956694;29;20035;-69
2021/11/17 07:38:11;;;;;;;15.40;6.50;;;;;;;0.80;63.09;100511.91;4956302;29;20083;-70
2021/11/17 07:40:42;;;;;;;13.45;6.43;;;;;;;0.88;63.16;100509.13;4956012;29;20507;-69
2021/11/17 07:43:25;;;;;;;17.17;6.50;;;;;;;0.83;63.14;100513.59;4956580;29;20058;-70
2021/11/17 07:45:58;;;;;;;20.40;6.22;;;;;;;0.92;62.75;100510.75;4907459;29;20696;-72
2021/11/17 07:48:28;;;;;;;14.85;5.95;;;;;;;0.91;62.53;100514.25;4939441;29;20074;-70
2021/11/17 07:50:55;;;;;;;14.48;5.35;;;;;;;0.87;62.76;100520.44;4939633;29;20039;-69
2021/11/17 07:53:23;;;;;;;25.65;9.10;;;;;;;0.87;62.57;100515.22;4939247;29;20039;-71
2021/11/17 07:55:51;;;;;;;19.25;7.13;;;;;;;0.92;62.32;100513.34;4956282;29;20058;-70
2021/11/17 07:58:22;;;;;;;24.23;7.45;;;;;;;0.95;63.29;100510.69;4939043;29;20054;-69
2021/11/17 08:00:50;;;;;;;14.85;6.25;;;;;;;1.03;62.73;100519.16;4956397;29;20043;-68
2021/11/17 08:03:22;;;;;;;25.20;7.50;;;;;;;1.05;63.11;100522.59;4924004;29;20043;-70
2021/11/17 08:05:48;;;;;;;;;;;;;;;1.23;62.06;100515.22;4939232;29;20070;-69
2021/11/17 08:08:15;;;;;;;19.45;9.70;;;;;;;1.22;62.00;100518.72;4923659;29;19922;-68
2021/11/17 08:10:41;;;;;;;12.47;6.70;;;;;;;0.96;62.70;100517.63;4956131;29;20078;-68
2021/11/17 08:13:07;;;;;;;18.33;6.70;;;;;;;0.94;62.99;100509.81;4938637;29;20393;-69
2021/11/17 08:15:33;;;;;;;23.85;7.88;;;;;;;0.98;62.79;100515.81;4956096;29;20050;-72
2021/11/17 08:17:59;;;;;;;18.45;7.10;;;;;;;1.08;62.35;100506.03;4922626;29;20043;-69
2021/11/17 08:20:28;;;;;;;18.17;6.25;;;;;;;1.05;62.48;100506.97;4939352;29;20400;-69
2021/11/17 08:22:55;;;;;;;13.23;5.85;;;;;;;1.09;62.09;100516.41;4891463;29;20038;-70
2021/11/17 08:25:23;;;;;;;13.13;5.80;;;;;;;1.13;62.33;100514.59;4955823;29;20047;-71
2021/11/17 08:27:50;;;;;;;16.73;6.30;;;;;;;1.16;61.69;100521.47;4955971;29;20066;-71
2021/11/17 08:30:17;;;;;;;15.52;6.13;;;;;;;1.11;61.94;100519.84;4924000;29;20053;-71
2021/11/17 08:32:44;;;;;;;15.20;6.82;;;;;;;1.23;61.73;100517.84;4939149;29;20043;-70
2021/11/17 08:35:15;;;;;;;15.50;6.43;;;;;;;1.18;62.25;100520.53;4923835;29;20063;-69
2021/11/17 08:37:49;;;;;;;11.82;5.75;;;;;;;1.30;61.33;100516.78;4923659;29;20055;-71
2021/11/17 08:40:21;;;;;;;23.00;5.57;;;;;;;1.20;61.86;100520.53;4923821;29;20074;-69
2021/11/17 08:42:47;;;;;;;58.22;19.60;;;;;;;0.99;61.99;100516.69;4922916;29;20125;-70
2021/11/17 08:45:16;;;;;;;39.90;12.40;;;;;;;1.20;61.82;100516.16;4938672;29;20178;-67
2021/11/17 08:47:43;;;;;;;31.52;11.95;;;;;;;1.41;61.32;100519.13;4938641;29;20546;-69
2021/11/17 08:50:15;;;;;;;33.63;11.23;;;;;;;1.35;61.53;100525.34;4955667;29;20174;-70
2021/11/17 08:52:54;;;;;;;20.17;7.90;;;;;;;1.23;61.48;100517.84;4938501;29;20523;-76
2021/11/17 08:55:22;;;;;;;19.05;7.25;;;;;;;1.20;61.29;100515.31;4938330;29;20047;-69
2021/11/17 08:57:50;;;;;;;21.52;7.07;;;;;;;1.10;62.17;100531.16;4955288;29;20396;-70
2021/11/17 09:00:20;;;;;;;18.08;7.75;;;;;;;1.03;62.08;100521.78;4922146;29;20058;-72
2021/11/17 09:02:48;;;;;;;33.50;10.52;;;;;;;0.81;62.24;100518.84;4937344;29;20058;-68
2021/11/17 09:05:18;;;;;;;22.52;8.85;;;;;;;0.93;62.84;100522.88;4954903;29;20079;-71
2021/11/17 09:07:46;;;;;;;14.88;6.72;;;;;;;1.07;62.11;100525.16;4937738;29;20149;-70
2021/11/17 09:10:16;;;;;;;20.38;6.65;;;;;;;1.21;61.91;100524.81;4954758;29;20134;-68
2021/11/17 09:12:43;;;;;;;12.85;5.55;;;;;;;1.24;61.43;100530.81;4937460;29;20055;-69
2021/11/17 09:15:11;;;;;;;66.72;22.75;;;;;;;1.06;62.10;100523.44;4921542;29;20058;-68
2021/11/17 09:17:38;;;;;;;14.70;5.97;;;;;;;1.19;62.01;100518.81;4955183;29;20054;-70
2021/11/17 09:20:05;;;;;;;13.73;6.43;;;;;;;1.44;61.22;100519.88;4937683;29;20100;-69
2021/11/17 09:22:34;;;;;;;19.55;6.32;;;;;;;1.62;61.28;100525.53;4954648;29;20051;-69
2021/11/17 09:25:02;;;;;;;15.18;6.38;;;;;;;1.81;60.73;100527.63;4937414;29;20142;-70
2021/11/17 09:27:28;;;;;;;13.82;6.53;;;;;;;1.90;60.18;100519.56;4954526;29;20094;-72
2021/11/17 09:29:55;;;;;;;13.88;5.85;;;;;;;1.89;60.11;100520.47;4937359;29;20556;-73
2021/11/17 09:32:21;;;;;;;19.90;6.80;;;;;;;1.98;59.56;100520.22;4937757;29;20058;-69
2021/11/17 09:34:47;;;;;;;15.85;5.75;;;;;;;2.17;59.33;100520.56;4954456;29;20035;-70
2021/11/17 09:37:18;;;;;;;21.63;5.55;;;;;;;2.24;58.94;100526.44;4906933;29;20500;-71
2021/11/17 09:39:46;;;;;;;33.67;13.00;;;;;;;2.18;58.53;100516.19;4921822;29;20047;-70
2021/11/17 09:42:13;;;;;;;20.08;5.93;;;;;;;1.93;59.54;100511.66;4953885;28;20054;-70
2021/11/17 09:44:41;;;;;;;17.58;6.72;;;;;;;1.65;59.87;100511.56;4937492;29;20102;-72
2021/11/17 09:47:12;;;;;;;18.85;6.80;;;;;;;1.68;60.35;100504.50;4954394;29;20082;-69
2021/11/17 09:49:44;;;;;;;14.90;6.95;;;;;;;1.87;59.53;100501.38;4937525;29;20039;-71
2021/11/17 09:52:21;;;;;;;19.88;6.40;;;;;;;1.78;59.36;100500.75;4937289;29;20047;-68
2021/11/17 09:54:59;;;;;;;32.03;9.98;;;;;;;1.70;60.03;100502.72;4954112;29;20039;-69
2021/11/17 09:57:40;;;;;;;16.42;7.00;;;;;;;1.62;59.87;100496.88;4954272;29;20154;-70
2021/11/17 10:00:13;;;;;;;21.50;7.15;;;;;;;1.87;60.18;100490.94;4937142;29;20134;-68
2021/11/17 10:02:44;;;;;;;15.80;7.05;;;;;;;1.86;59.52;100495.31;4954411;29;20054;-71
2021/11/17 10:05:29;;;;;;;22.85;8.13;;;;;;;1.77;59.54;100488.63;4920960;29;20106;-71
2021/11/17 10:13:23;;;;;;;28.02;9.05;;;;;;;1.69;59.89;100482.75;4936972;29;20055;-70
2021/11/17 10:15:52;;;;;;;29.67;9.32;;;;;;;1.93;59.82;100482.97;4953673;29;20088;-71
2021/11/17 10:18:18;;;;;;;36.25;10.70;;;;;;;2.00;59.54;100479.28;4937043;29;20097;-70
2021/11/17 10:20:47;;;;;;;46.65;18.00;;;;;;;1.95;59.80;100483.78;4936288;29;20085;-70
2021/11/17 10:23:19;;;;;;;40.95;12.60;;;;;;;2.01;59.79;100482.75;4953538;29;20051;-71
2021/11/17 10:25:46;;;;;;;46.03;17.42;;;;;;;2.08;59.31;100474.72;4953835;29;20115;-68
2021/11/17 10:28:13;;;;;;;30.08;10.57;;;;;;;2.21;59.13;100480.41;4953635;29;20051;-70
2021/11/17 10:30:51;;;;;;;27.43;7.60;;;;;;;2.34;58.51;100480.06;4952792;29;20098;-70
2021/11/17 10:33:24;;;;;;;25.83;7.32;;;;;;;2.30;58.63;100468.84;4953596;29;20055;-71
2021/11/17 10:36:18;;;;;;;26.67;7.25;;;;;;;2.17;58.85;100478.81;4901770;29;20051;-71
2021/11/17 10:38:53;;;;;;;31.48;9.13;;;;;;;2.14;59.32;100472.81;4917540;29;20875;-73
2021/11/17 10:41:28;;;;;;;27.98;10.35;;;;;;;2.30;59.03;100466.22;4934377;29;20134;-72
2021/11/17 10:44:02;;;;;;;18.10;7.03;;;;;;;2.39;58.01;100472.94;4917129;29;20142;-72
2021/11/17 10:46:48;;;;;;;18.35;8.10;;;;;;;2.51;58.47;100466.50;4934906;29;20106;-70
2021/11/17 10:49:17;;;;;;;33.92;8.90;;;;;;;2.56;58.06;100464.59;4934974;29;20051;-71
2021/11/17 10:51:56;;;;;;;24.17;7.13;;;;;;;2.58;58.23;100468.03;4901628;29;20047;-71
2021/11/17 10:54:28;;;;;;;20.27;7.40;;;;;;;2.56;58.53;100472.44;4917289;29;20054;-73
2021/11/17 10:57:18;;;;;;;34.33;7.60;;;;;;;2.63;58.11;100460.91;4917178;29;20047;-71
2021/11/17 10:59:44;;;;;;;27.63;8.35;;;;;;;2.33;57.84;100468.78;4934395;29;20401;-73
2021/11/17 11:02:11;;;;;;;29.77;8.63;;;;;;;2.33;58.31;100460.94;4933902;29;20118;-72
2021/11/17 11:04:41;;;;;;;19.40;7.43;;;;;;;2.52;57.93;100463.84;4920140;29;20070;-69
2021/11/17 11:07:14;;;;;;;31.10;7.05;;;;;;;2.49;58.53;100463.06;4932006;29;20066;-71
2021/11/17 11:09:45;;;;;;;35.58;8.48;;;;;;;2.51;58.43;100453.44;4933804;29;20176;-71
2021/11/17 11:12:15;;;;;;;25.67;7.90;;;;;;;2.51;58.06;100456.06;4932888;29;20724;-71
2021/11/17 11:14:55;;;;;;;17.98;7.28;;;;;;;2.20;58.78;100456.97;4917097;29;20050;-70
2021/11/17 11:17:33;;;;;;;21.08;6.85;;;;;;;2.19;59.14;100452.66;4916861;29;20039;-68
2021/11/17 11:20:20;;;;;;;33.03;11.98;;;;;;;2.04;59.78;100460.03;4916853;29;20220;-71
2021/11/17 11:23:05;;;;;;;20.80;8.05;;;;;;;2.12;59.53;100453.72;4924285;29;20056;-70
2021/11/17 11:25:52;;;;;;;34.95;10.38;;;;;;;1.93;60.02;100456.88;4933629;29;20043;-69
2021/11/17 11:28:21;;;;;;;17.73;6.60;;;;;;;1.91;59.82;100456.09;4917010;29;20413;-72
2021/11/17 11:31:06;;;;;;;17.83;7.03;;;;;;;1.95;59.48;100457.69;4933931;29;20584;-70
2021/11/17 11:34:13;;;;;;;26.98;7.15;;;;;;;1.78;59.54;100456.44;4934302;29;20055;-69
2021/11/17 11:36:46;;;;;;;22.40;7.22;;;;;;;1.73;60.70;100458.31;4952743;29;20051;-71
2021/11/17 11:39:12;;;;;;;18.88;6.50;;;;;;;1.64;60.51;100463.75;4952905;29;20087;-74
2021/11/17 11:41:40;;;;;;;15.57;5.95;;;;;;;1.53;60.83;100464.03;4936521;29;20051;-73
2021/11/17 11:44:24;;;;;;;26.30;6.85;;;;;;;1.59;60.39;100461.28;4919556;29;20053;-70
2021/11/17 11:46:51;;;;;;;18.40;6.22;;;;;;;1.77;60.37;100449.50;4952804;29;20112;-71
2021/11/17 11:49:35;;;;;;;16.50;6.10;;;;;;;1.72;60.80;100463.53;4919760;29;20134;-71
2021/11/17 11:52:22;;;;;;;25.98;8.43;;;;;;;1.77;61.09;100456.47;4935292;29;20047;-71
2021/11/17 11:54:51;;;;;;;28.25;11.18;;;;;;;1.84;60.55;100463.22;4935462;29;20150;-68
2021/11/17 11:57:32;;;;;;;21.50;6.65;;;;;;;1.72;60.47;100461.81;4952592;29;20138;-68
2021/11/17 12:00:29;;;;;;;22.42;9.38;;;;;;;1.66;60.74;100463.72;4952716;29;20070;-69
2021/11/17 12:03:01;;;;;;;29.13;10.02;;;;;;;1.75;60.90;100466.09;4951398;29;20141;-69
2021/11/17 12:05:36;;;;;;;37.15;11.07;;;;;;;1.78;61.31;100474.69;4955449;28;20141;-70
2021/11/17 12:08:23;;;;;;;28.17;8.90;;;;;;;1.74;60.25;100467.81;4939000;29;20476;-70
2021/11/17 12:11:12;;;;;;;41.20;12.52;;;;;;;1.72;60.47;100466.16;4938324;29;20507;-71
2021/11/17 12:14:05;;;;;;;34.13;11.95;;;;;;;1.71;61.34;100465.31;4928616;29;20150;-71
2021/11/17 12:16:44;;;;;;;21.83;5.65;;;;;;;1.53;61.60;100455.38;4956060;29;20416;-67
2021/11/17 12:19:30;;;;;;;20.55;7.20;;;;;;;1.52;61.79;100461.50;4955391;29;20125;-69
2021/11/17 12:22:39;;;;;;;20.70;7.60;;;;;;;1.59;61.28;100463.88;4938371;29;20062;-69
2021/11/17 12:25:17;;;;;;;23.65;9.32;;;;;;;1.63;61.21;100462.06;4943722;28;20484;-69
2021/11/17 12:27:43;;;;;;;;;;;;;;;1.62;61.68;100460.38;4956467;29;20051;-70
2021/11/17 12:30:30;;;;;;;18.40;6.15;;;;;;;1.52;61.70;100464.09;4955462;29;19918;-69
2021/11/17 12:33:15;;;;;;;23.98;8.25;;;;;;;1.47;61.05;100458.16;4955721;29;20051;-70
2021/11/17 12:36:20;;;;;;;23.65;8.63;;;;;;;1.54;61.33;100457.09;4938492;29;20051;-69
2021/11/17 12:38:46;;;;;;;34.13;11.73;;;;;;;1.56;61.89;100450.09;4954975;29;20103;-71
2021/11/17 12:41:34;;;;;;;47.00;17.95;;;;;;;1.45;61.80;100464.25;4922934;29;20046;-71
2021/11/17 12:44:10;;;;;;;57.67;18.70;;;;;;;1.45;61.91;100459.03;4956392;29;20047;-71
2021/11/17 12:46:48;;;;;;;70.55;24.17;;;;;;;1.48;61.78;100462.47;4938137;29;20817;-69
2021/11/17 12:49:23;;;;;;;44.92;16.77;;;;;;;1.46;62.00;100457.31;4955569;29;20488;-68
2021/11/17 12:52:08;;;;;;;22.35;9.77;;;;;;;1.48;61.98;100460.72;4938511;29;20047;-71
2021/11/17 12:54:41;;;;;;;36.80;12.65;;;;;;;1.41;62.35;100461.78;4938453;29;20461;-72
2021/11/17 12:57:26;;;;;;;24.92;7.45;;;;;;;1.40;62.72;100463.53;4955193;29;20047;-71
2021/11/17 13:00:03;;;;;;;18.77;6.45;;;;;;;1.48;62.58;100465.09;4955175;29;20499;-69
2021/11/17 13:02:48;;;;;;;16.38;5.88;;;;;;;1.43;62.11;100460.84;4938409;29;20054;-71
2021/11/17 13:05:16;;;;;;;30.42;8.43;;;;;;;1.39;62.75;100469.63;4954994;29;20077;-73
2021/11/17 13:07:48;;;;;;;26.98;8.05;;;;;;;1.40;62.40;100466.13;4937696;29;20050;-69
2021/11/17 13:10:28;;;;;;;22.67;8.52;;;;;;;1.51;62.80;100462.38;4955027;29;20094;-71
2021/11/17 13:13:13;;;;;;;35.10;9.23;;;;;;;1.49;61.88;100465.03;4954789;29;20098;-70
2021/11/17 13:15:48;;;;;;;20.38;7.75;;;;;;;1.49;62.51;100464.19;4954103;28;20489;-69
2021/11/17 13:18:49;;;;;;;20.98;9.05;;;;;;;1.54;62.86;100462.31;4937856;29;20058;-71
2021/11/17 13:21:21;;;;;;;17.75;8.07;;;;;;;1.57;62.08;100462.22;4937500;29;20047;-69
2021/11/17 13:23:55;;;;;;;27.52;8.45;;;;;;;1.58;61.85;100459.59;4954853;29;20489;-69
2021/11/17 13:26:51;;;;;;;19.02;7.47;;;;;;;1.45;62.43;100459.03;4954596;29;20043;-69
2021/11/17 13:29:32;;;;;;;17.90;7.00;;;;;;;1.47;62.06;100456.41;4937579;29;20051;-70
2021/11/17 13:32:04;;;;;;;17.52;7.53;;;;;;;1.40;62.39;100455.72;4937247;29;20047;-69
2021/11/17 13:34:31;;;;;;;22.30;7.47;;;;;;;1.40;63.00;100455.72;4937425;29;20097;-69
2021/11/17 13:37:19;;;;;;;20.08;7.35;;;;;;;1.43;62.66;100445.22;4954569;29;20057;-69
2021/11/17 13:39:46;;;;;;;26.58;7.90;;;;;;;1.46;62.55;100444.28;4954947;29;20129;-68
2021/11/17 13:42:12;;;;;;;23.90;8.82;;;;;;;1.41;63.08;100441.78;4954182;29;20353;-71
2021/11/17 13:44:39;;;;;;;22.27;8.68;;;;;;;1.45;62.26;100438.19;4954509;29;20054;-71
2021/11/17 13:47:17;;;;;;;30.55;9.57;;;;;;;1.52;62.65;100443.25;4954175;29;20078;-71
2021/11/17 13:49:44;;;;;;;;;;;;;;;1.57;62.38;100436.16;4955325;29;20050;-72
2021/11/17 13:52:11;;;;;;;25.42;7.53;;;;;;;1.46;63.16;100439.06;4937166;29;19926;-71
2021/11/17 13:54:37;;;;;;;25.43;9.47;;;;;;;1.38;62.66;100441.84;4954411;29;20087;-70
2021/11/17 13:57:08;;;;;;;18.90;8.13;;;;;;;1.42;62.98;100437.41;4936755;29;20066;-71
2021/11/17 13:59:34;;;;;;;22.10;8.70;;;;;;;1.45;62.61;100440.81;4936874;29;20543;-72
2021/11/17 14:02:00;;;;;;;25.20;9.90;;;;;;;1.47;63.21;100437.31;4953562;29;20134;-71
2021/11/17 14:04:27;;;;;;;34.67;11.40;;;;;;;1.39;63.84;100443.56;4937164;29;20059;-69
2021/11/17 14:06:54;;;;;;;31.25;8.85;;;;;;;1.45;63.30;100432.97;4953531;29;20082;-70
2021/11/17 14:09:20;;;;;;;23.38;8.13;;;;;;;1.44;63.63;100440.84;4954106;29;20556;-70
2021/11/17 14:11:46;;;;;;;23.30;8.35;;;;;;;1.43;63.77;100439.13;4954055;29;20039;-69
2021/11/17 14:14:12;;;;;;;26.15;7.85;;;;;;;1.52;63.04;100438.91;4953629;29;20620;-69
2021/11/17 14:16:38;;;;;;;20.88;8.38;;;;;;;1.54;62.72;100441.47;4936511;29;20547;-70
2021/11/17 14:19:04;;;;;;;56.03;15.93;;;;;;;1.61;62.72;100440.41;4953514;29;20082;-72
2021/11/17 14:21:30;;;;;;;24.95;10.35;;;;;;;1.56;63.29;100444.88;4954229;29;20051;-70
2021/11/17 14:23:56;;;;;;;126.22;37.25;;;;;;;1.40;63.55;100440.06;4953655;29;20096;-70
2021/11/17 14:26:23;;;;;;;116.38;33.40;;;;;;;1.43;63.15;100440.00;4936228;29;20050;-71
2021/11/17 14:28:52;;;;;;;29.40;10.98;;;;;;;1.55;63.22;100444.00;4936241;29;20054;-70
2021/11/17 14:31:34;;;;;;;23.85;8.85;;;;;;;1.61;63.69;100443.84;4920435;29;20039;-68
2021/11/17 14:34:01;;;;;;;33.40;13.10;;;;;;;1.70;63.18;100436.69;4953366;29;20059;-69
2021/11/17 14:36:31;;;;;;;25.92;9.50;;;;;;;1.65;63.57;100436.81;4953432;29;20047;-69